San Francisco — EFXF — position and weather

sailwx.info

Track history (hours):
 
Tides and Currents Weather Stations Pressure Air Temp Water Temp Dewpoint Dewpoint Depression Visibility Wind Speed Wind Dir Waves Ship Positions

San Francisco

Last reported at 2018-May-02 03:18 UTC. Time now 2018-May-25 02:55 UTC.
Position N 36°04' W 005°22'.
Warning: this ship's position is 22 days out of date.

Length 256 m.

Type: Cargo ship. MMSI: 224226000.

Date/timePositionNaut miles runAvg speedWind from/ knotsBaromVisibWave heightAir tempDewpointWater temp
2018-May-02 03:18N 36°04' W 005°22'1 1.9
2018-May-02 02:48N 36°05' W 005°23'2 3.5
2018-May-02 02:10N 36°07' W 005°25'3 0.4
2018-May-01 19:06N 36°09' W 005°26'110.2
2018-May-01 19:00N 36°09' W 005°25'1 0.1
2018-May-01 01:06N 36°09' W 005°26'3 9.2
2018-May-01 00:49N 36°07' W 005°25'3 2.1
2018-Apr-30 23:24N 36°04' W 005°23'2 2.1
2018-Apr-30 22:28N 36°06' W 005°24'4 0.1
2018-Apr-29 20:03N 36°09' W 005°26'0 7.2
2018-Apr-29 20:00N 36°09' W 005°25'6 8.5
2018-Apr-29 19:19N 36°05' W 005°20'2 1.3
2018-Apr-29 17:39N 36°03' W 005°21'7 0.6
2018-Apr-29 06:10N 36°09' W 005°26'4 8.9
2018-Apr-29 05:42N 36°05' W 005°24'0 1.5
2018-Apr-29 05:27N 36°06' W 005°24'3 0.5
2018-Apr-28 23:09N 36°05' W 005°21'0 0.1
2018-Apr-28 22:43N 36°04' W 005°21'1 4.3
2018-Apr-28 22:29N 36°04' W 005°22'  
Track history (hours):
 
Tides and Currents Weather Stations Pressure Air Temp Water Temp Dewpoint Dewpoint Depression Visibility Wind Speed Wind Dir Waves Ship Positions

San Francisco

Last reported at 2018-May-02 03:18 UTC. Time now 2018-May-25 02:55 UTC.
Position N 36°04' W 005°22'.
Warning: this ship's position is 22 days out of date.

Length 256 m.

Type: Cargo ship. MMSI: 224226000.

Date/timePositionNaut miles runAvg speedWind from/ knotsBaromVisibWave heightAir tempDewpointWater temp
2018-May-02 03:18N 36°04' W 005°22'1 1.9
2018-May-02 02:48N 36°05' W 005°23'2 3.5
2018-May-02 02:10N 36°07' W 005°25'3 0.4
2018-May-01 19:06N 36°09' W 005°26'110.2
2018-May-01 19:00N 36°09' W 005°25'1 0.1
2018-May-01 01:06N 36°09' W 005°26'3 9.2
2018-May-01 00:49N 36°07' W 005°25'3 2.1
2018-Apr-30 23:24N 36°04' W 005°23'2 2.1
2018-Apr-30 22:28N 36°06' W 005°24'4 0.1
2018-Apr-29 20:03N 36°09' W 005°26'0 7.2
2018-Apr-29 20:00N 36°09' W 005°25'6 8.5
2018-Apr-29 19:19N 36°05' W 005°20'2 1.3
2018-Apr-29 17:39N 36°03' W 005°21'7 0.6
2018-Apr-29 06:10N 36°09' W 005°26'4 8.9
2018-Apr-29 05:42N 36°05' W 005°24'0 1.5
2018-Apr-29 05:27N 36°06' W 005°24'3 0.5
2018-Apr-28 23:09N 36°05' W 005°21'0 0.1
2018-Apr-28 22:43N 36°04' W 005°21'1 4.3
2018-Apr-28 22:29N 36°04' W 005°22'  

Dump ship's entire track history